createdAt,value
2023-04-19T00:00:08.717Z,59.27
2023-04-19T00:02:43.403Z,58.80
2023-04-19T00:05:16.605Z,58.50
2023-04-19T00:07:51.871Z,58.53
2023-04-19T00:10:25.296Z,58.13
2023-04-19T00:12:58.160Z,59.23
2023-04-19T00:15:31.900Z,58.67
2023-04-19T00:18:05.230Z,57.91
2023-04-19T00:20:40.042Z,58.79
2023-04-19T00:23:14.401Z,58.54
2023-04-19T00:25:47.639Z,58.97
2023-04-19T00:28:20.767Z,58.27
2023-04-19T00:30:54.522Z,58.34
2023-04-19T00:33:28.155Z,58.44
2023-04-19T00:36:03.414Z,58.94
2023-04-19T00:38:38.052Z,57.97
2023-04-19T00:41:11.199Z,58.34
2023-04-19T00:43:44.349Z,58.24
2023-04-19T00:46:18.112Z,58.60
2023-04-19T00:48:52.347Z,58.35
2023-04-19T00:51:27.320Z,58.50
2023-04-19T00:54:05.112Z,58.82
2023-04-19T00:56:38.528Z,58.36
2023-04-19T00:59:12.559Z,58.60
2023-04-19T01:01:45.793Z,59.05
2023-04-19T01:04:19.260Z,58.54
2023-04-19T01:06:52.746Z,59.18
2023-04-19T01:09:26.998Z,59.41
2023-04-19T01:12:04.202Z,59.28
2023-04-19T01:14:37.936Z,59.31
2023-04-19T01:17:16.774Z,59.11
2023-04-19T01:19:50.135Z,59.23
2023-04-19T01:22:24.654Z,58.96
2023-04-19T01:24:59.148Z,59.40
2023-04-19T01:27:32.778Z,59.59
2023-04-19T01:30:06.809Z,59.21
2023-04-19T01:32:39.762Z,59.92
2023-04-19T01:35:12.629Z,59.75
2023-04-19T01:37:46.945Z,59.90
2023-04-19T01:40:20.646Z,59.69
2023-04-19T01:42:54.424Z,59.89
2023-04-19T01:45:27.828Z,59.67
2023-04-19T01:48:01.495Z,59.79
2023-04-19T01:50:34.872Z,60.08
2023-04-19T01:53:11.225Z,59.68
2023-04-19T01:55:44.017Z,59.61
2023-04-19T01:58:17.508Z,59.86
2023-04-19T02:00:51.886Z,59.85
2023-04-19T02:03:25.291Z,59.50
2023-04-19T02:05:58.502Z,59.50
2023-04-19T02:08:33.785Z,59.89
2023-04-19T02:11:08.202Z,60.03
2023-04-19T02:13:42.033Z,59.90
2023-04-19T02:16:16.874Z,59.73
2023-04-19T02:18:51.115Z,59.85
2023-04-19T02:21:30.528Z,60.30
2023-04-19T02:24:04.972Z,59.58
2023-04-19T02:26:38.555Z,60.75
2023-04-19T02:29:11.864Z,60.19
2023-04-19T02:31:46.595Z,61.17
2023-04-19T02:34:19.552Z,60.70
2023-04-19T02:36:52.361Z,60.82
2023-04-19T02:39:26.529Z,60.38
2023-04-19T02:41:59.374Z,60.09
2023-04-19T02:44:32.625Z,60.52
2023-04-19T02:47:05.617Z,60.38
2023-04-19T02:49:41.504Z,60.61
2023-04-19T02:52:15.773Z,60.53
2023-04-19T02:54:49.954Z,60.75
2023-04-19T02:57:22.893Z,60.29
2023-04-19T02:59:55.560Z,60.41
2023-04-19T03:02:28.630Z,60.38
2023-04-19T03:05:03.869Z,60.93
2023-04-19T03:07:39.535Z,61.05
2023-04-19T03:10:14.838Z,60.36
2023-04-19T03:12:51.682Z,60.19
2023-04-19T03:15:25.405Z,60.25
2023-04-19T03:17:58.494Z,60.30
2023-04-19T03:20:31.934Z,60.33
2023-04-19T03:23:04.760Z,60.28
2023-04-19T03:25:40.291Z,60.88
2023-04-19T03:28:24.952Z,60.61
2023-04-19T03:31:16.558Z,60.86
2023-04-19T03:33:50.753Z,60.66
2023-04-19T03:36:25.265Z,60.36
2023-04-19T03:38:58.368Z,60.12
2023-04-19T03:41:34.071Z,60.50
2023-04-19T03:44:23.753Z,60.74
2023-04-19T03:46:56.475Z,60.84
2023-04-19T03:49:39.783Z,60.08
2023-04-19T03:52:13.016Z,60.76
2023-04-19T03:54:45.888Z,60.45
2023-04-19T03:57:33.158Z,61.45
2023-04-19T04:00:10.823Z,60.84
2023-04-19T04:02:54.601Z,60.77
2023-04-19T04:05:28.750Z,60.89
2023-04-19T04:08:02.262Z,60.81
2023-04-19T04:10:35.268Z,60.51
2023-04-19T04:13:09.462Z,60.86
2023-04-19T04:15:50.849Z,60.44
2023-04-19T04:18:23.933Z,60.68
2023-04-19T04:20:56.891Z,60.39
2023-04-19T04:23:30.234Z,60.41
2023-04-19T04:26:05.517Z,61.27
2023-04-19T04:29:02.998Z,61.13
2023-04-19T04:31:38.070Z,60.43
2023-04-19T04:34:11.465Z,60.73
2023-04-19T04:36:58.034Z,60.50
2023-04-19T04:39:39.659Z,60.92
2023-04-19T04:42:17.843Z,60.73
2023-04-19T04:44:53.512Z,60.97
2023-04-19T04:47:27.420Z,61.23
2023-04-19T04:50:02.482Z,60.90
2023-04-19T04:52:36.661Z,61.52
2023-04-19T04:55:19.650Z,61.40
2023-04-19T04:57:53.925Z,61.19
2023-04-19T05:00:43.062Z,60.88
2023-04-19T05:03:16.907Z,61.09
2023-04-19T05:05:55.189Z,61.80
2023-04-19T05:08:30.020Z,61.21
2023-04-19T05:11:14.596Z,61.45
2023-04-19T05:13:49.135Z,61.55
2023-04-19T05:16:23.549Z,61.40
2023-04-19T05:18:56.524Z,61.04
2023-04-19T05:21:30.979Z,61.66
2023-04-19T05:24:04.348Z,61.58
2023-04-19T05:26:39.400Z,61.63
2023-04-19T05:29:13.424Z,61.47
2023-04-19T05:31:54.413Z,62.11
2023-04-19T05:34:34.452Z,61.63
2023-04-19T05:37:07.594Z,61.63
2023-04-19T05:39:42.355Z,61.40
2023-04-19T05:42:17.028Z,61.47
2023-04-19T05:44:49.817Z,60.92
2023-04-19T05:47:24.687Z,61.95
2023-04-19T05:50:08.935Z,61.40
2023-04-19T05:52:46.296Z,61.63
2023-04-19T05:55:20.057Z,61.44
2023-04-19T05:57:55.691Z,60.80
2023-04-19T06:00:31.408Z,61.07
2023-04-19T06:03:14.770Z,61.73
2023-04-19T06:05:47.834Z,61.32
2023-04-19T06:21:23.817Z,61.17
2023-04-19T06:30:20.461Z,60.61
2023-04-19T06:32:53.863Z,61.32
2023-04-19T06:35:26.735Z,61.19
2023-04-19T06:38:00.215Z,61.11
2023-04-19T06:40:35.514Z,61.12
2023-04-19T06:43:08.382Z,61.17
2023-04-19T06:45:42.539Z,61.00
2023-04-19T06:48:15.808Z,61.29
2023-04-19T06:50:48.539Z,60.50
2023-04-19T06:53:21.423Z,60.99
2023-04-19T06:55:59.239Z,60.47
2023-04-19T06:58:34.452Z,60.60
2023-04-19T07:01:09.327Z,60.76
2023-04-19T07:03:42.410Z,60.69
2023-04-19T07:06:17.963Z,60.30
2023-04-19T07:08:50.780Z,60.43
2023-04-19T07:11:23.621Z,60.42
2023-04-19T07:13:56.602Z,59.30
2023-04-19T07:16:31.047Z,59.50
2023-04-19T07:19:03.970Z,59.66
2023-04-19T07:21:38.506Z,59.88
2023-04-19T07:24:11.226Z,60.21
2023-04-19T07:26:44.495Z,59.91
2023-04-19T07:29:17.696Z,60.54
2023-04-19T07:31:55.386Z,59.90
2023-04-19T07:34:28.969Z,59.10
2023-04-19T07:37:02.088Z,58.91
2023-04-19T07:39:35.005Z,59.99
2023-04-19T07:42:08.014Z,59.52
2023-04-19T07:44:40.920Z,59.04
2023-04-19T07:47:15.046Z,57.78
2023-04-19T07:49:47.834Z,57.69
2023-04-19T07:52:20.634Z,57.64
2023-04-19T07:54:53.318Z,57.50
2023-04-19T07:57:26.442Z,57.31
2023-04-19T08:00:00.049Z,56.15
2023-04-19T08:02:34.571Z,56.78
2023-04-19T08:05:09.180Z,56.94
2023-04-19T08:07:44.452Z,56.92
2023-04-19T08:10:17.222Z,58.15
2023-04-19T08:16:12.934Z,58.44
2023-04-19T08:18:24.338Z,56.24
2023-04-19T08:20:58.156Z,56.31
2023-04-19T08:23:41.240Z,55.50
2023-04-19T08:26:18.208Z,57.45
2023-04-19T08:28:52.231Z,56.19
2023-04-19T08:31:25.015Z,56.50
2023-04-19T08:34:00.285Z,57.58
2023-04-19T08:36:41.149Z,57.39
2023-04-19T08:39:29.157Z,54.66
2023-04-19T08:42:11.092Z,58.42
2023-04-19T08:45:12.989Z,57.33
2023-04-19T08:47:58.928Z,57.60
2023-04-19T08:50:48.442Z,59.42
2023-04-19T08:53:30.134Z,54.88
2023-04-19T08:58:56.856Z,56.43
2023-04-19T09:01:36.243Z,55.56
2023-04-19T09:04:34.799Z,57.39
2023-04-19T09:07:03.827Z,55.29
2023-04-19T09:09:45.558Z,53.74
2023-04-19T09:12:28.687Z,56.29
2023-04-19T09:15:03.289Z,54.63
2023-04-19T09:17:37.048Z,53.96
2023-04-19T09:20:10.170Z,57.20
2023-04-19T09:22:44.240Z,53.32
2023-04-19T09:28:15.619Z,52.84
2023-04-19T09:31:02.355Z,53.62
2023-04-19T09:33:44.711Z,53.26
2023-04-19T09:36:28.898Z,52.04
2023-04-19T09:39:03.586Z,52.11
2023-04-19T09:41:39.077Z,51.10
2023-04-19T09:46:53.807Z,52.70
2023-04-19T09:49:41.614Z,51.54
2023-04-19T09:52:18.761Z,51.42
2023-04-19T09:54:55.902Z,51.89
2023-04-19T09:57:28.868Z,52.40
2023-04-19T10:00:07.080Z,49.66
2023-04-19T10:02:48.628Z,49.94
2023-04-19T10:05:24.072Z,53.87
2023-04-19T10:08:00.123Z,51.90
2023-04-19T10:10:41.925Z,49.25
2023-04-19T10:13:24.859Z,50.58
2023-04-19T10:16:08.277Z,49.09
2023-04-19T10:18:51.116Z,48.42
2023-04-19T10:21:24.888Z,48.70
2023-04-19T10:23:58.376Z,48.69
2023-04-19T10:27:12.819Z,49.36
2023-04-19T10:30:04.591Z,53.30
2023-04-19T10:32:41.603Z,50.00
2023-04-19T10:35:20.583Z,47.90
2023-04-19T10:38:12.067Z,48.42
2023-04-19T10:41:00.557Z,47.80
2023-04-19T10:43:35.366Z,48.45
2023-04-19T10:46:09.606Z,47.08
2023-04-19T10:48:53.769Z,48.07
2023-04-19T10:51:29.143Z,45.70
2023-04-19T10:54:03.328Z,45.31
2023-04-19T10:57:00.212Z,43.80
2023-04-19T10:59:35.178Z,47.04
2023-04-19T11:02:29.442Z,43.69
2023-04-19T11:05:04.250Z,43.83
2023-04-19T11:07:41.887Z,44.03
2023-04-19T11:10:14.771Z,43.50
2023-04-19T11:12:47.366Z,44.38
2023-04-19T11:15:23.287Z,43.45
2023-04-19T11:18:11.438Z,43.12
2023-04-19T11:20:45.581Z,44.80
2023-04-19T11:23:18.923Z,44.92
2023-04-19T11:25:52.587Z,44.42
2023-04-19T11:28:25.694Z,44.86
2023-04-19T11:30:59.928Z,43.63
2023-04-19T11:33:34.538Z,43.51
2023-04-19T11:36:13.031Z,43.74
2023-04-19T11:38:48.739Z,44.26
2023-04-19T11:41:21.792Z,41.96
2023-04-19T11:43:54.566Z,42.34
2023-04-19T11:46:28.806Z,41.96
2023-04-19T11:49:01.778Z,45.63
2023-04-19T11:51:34.839Z,46.10
2023-04-19T11:54:16.866Z,47.95
2023-04-19T11:57:04.587Z,36.64
2023-04-19T11:59:37.607Z,42.79
2023-04-19T12:02:13.675Z,41.80
2023-04-19T12:04:46.624Z,43.21
2023-04-19T12:07:19.248Z,43.29
2023-04-19T12:09:51.951Z,42.92
2023-04-19T12:12:34.111Z,37.00
2023-04-19T12:15:08.110Z,38.07
2023-04-19T12:17:59.883Z,37.47
2023-04-19T12:20:34.201Z,43.06
2023-04-19T12:23:11.088Z,41.93
2023-04-19T12:25:45.556Z,39.66
2023-04-19T12:28:19.214Z,36.66
2023-04-19T12:30:53.002Z,41.89
2023-04-19T12:33:27.377Z,41.47
2023-04-19T12:36:00.362Z,41.59
2023-04-19T12:38:33.120Z,39.59
2023-04-19T12:41:06.071Z,38.24
2023-04-19T12:43:39.145Z,41.21
2023-04-19T12:46:12.046Z,43.82
2023-04-19T12:48:46.423Z,40.97
2023-04-19T12:51:20.652Z,37.94
2023-04-19T12:53:53.993Z,41.97
2023-04-19T12:56:27.146Z,34.33
2023-04-19T12:59:03.402Z,32.51
2023-04-19T13:01:36.458Z,35.26
2023-04-19T13:04:12.097Z,42.04
2023-04-19T13:06:45.070Z,38.81
2023-04-19T13:09:17.865Z,35.34
2023-04-19T13:11:50.575Z,38.55
2023-04-19T13:14:23.277Z,34.60
2023-04-19T13:16:56.162Z,34.10
2023-04-19T13:19:31.270Z,36.83
2023-04-19T13:22:04.083Z,33.93
2023-04-19T13:24:36.867Z,37.72
2023-04-19T13:27:09.720Z,38.69
2023-04-19T13:29:42.401Z,37.00
2023-04-19T13:32:17.207Z,34.69
2023-04-19T13:34:51.379Z,30.92
2023-04-19T13:37:24.364Z,32.95
2023-04-19T13:40:10.676Z,31.96
2023-04-19T13:42:47.925Z,32.11
2023-04-19T13:45:20.672Z,36.41
2023-04-19T13:47:53.428Z,37.39
2023-04-19T13:50:27.878Z,31.85
2023-04-19T13:53:01.286Z,36.85
2023-04-19T13:55:35.271Z,34.30
2023-04-19T13:58:08.027Z,30.65
2023-04-19T14:00:41.146Z,33.21
2023-04-19T14:03:13.974Z,34.11
2023-04-19T14:05:48.345Z,29.44
2023-04-19T14:08:21.083Z,31.39
2023-04-19T14:10:53.972Z,32.35
2023-04-19T14:13:26.923Z,31.04
2023-04-19T14:15:59.689Z,37.22
2023-04-19T14:18:32.336Z,35.33
2023-04-19T14:21:06.705Z,38.84
2023-04-19T14:23:39.551Z,35.01
2023-04-19T14:26:12.161Z,36.64
2023-04-19T14:28:44.855Z,35.92
2023-04-19T14:31:17.750Z,38.92
2023-04-19T14:33:50.547Z,36.71
2023-04-19T14:36:24.681Z,34.14
2023-04-19T14:38:57.458Z,36.36
2023-04-19T14:41:30.309Z,34.43
2023-04-19T14:44:02.871Z,38.06
2023-04-19T14:46:35.739Z,38.00
2023-04-19T14:49:08.375Z,33.94
2023-04-19T14:51:43.062Z,33.06
2023-04-19T14:54:16.304Z,33.22
2023-04-19T14:56:49.088Z,35.44
2023-04-19T14:59:21.906Z,36.69
2023-04-19T15:01:54.559Z,35.48
2023-04-19T15:04:27.658Z,32.61
2023-04-19T15:07:01.903Z,34.35
2023-04-19T15:09:34.611Z,33.94
2023-04-19T15:12:07.350Z,34.49
2023-04-19T15:14:40.532Z,32.79
2023-04-19T15:17:13.388Z,32.55
2023-04-19T15:19:46.987Z,31.91
2023-04-19T15:22:21.321Z,33.62
2023-04-19T15:24:54.112Z,33.14
2023-04-19T15:27:26.885Z,34.44
2023-04-19T15:29:59.507Z,32.30
2023-04-19T15:32:34.254Z,32.63
2023-04-19T15:35:07.730Z,32.08
2023-04-19T15:37:43.868Z,32.65
2023-04-19T15:40:17.138Z,32.54
2023-04-19T15:42:49.977Z,33.04
2023-04-19T15:45:22.632Z,34.73
2023-04-19T15:47:55.459Z,33.29
2023-04-19T15:50:28.345Z,33.94
2023-04-19T15:53:02.455Z,32.91
2023-04-19T15:55:35.805Z,32.80
2023-04-19T15:58:09.698Z,34.37
2023-04-19T16:00:42.332Z,33.40
2023-04-19T16:03:15.234Z,33.79
2023-04-19T16:05:51.474Z,33.66
2023-04-19T16:08:25.771Z,33.97
2023-04-19T16:10:58.707Z,34.55
2023-04-19T16:13:31.619Z,34.09
2023-04-19T16:16:04.758Z,34.25
2023-04-19T16:18:37.552Z,34.01
2023-04-19T16:21:10.638Z,34.99
2023-04-19T16:23:44.683Z,35.55
2023-04-19T16:26:18.750Z,35.35
2023-04-19T16:28:51.545Z,34.43
2023-04-19T16:31:24.152Z,34.98
2023-04-19T16:33:56.948Z,34.97
2023-04-19T16:36:29.597Z,34.97
2023-04-19T16:39:03.695Z,34.52
2023-04-19T16:41:36.456Z,36.05
2023-04-19T16:44:11.344Z,35.47
2023-04-19T16:46:44.287Z,35.76
2023-04-19T16:49:17.937Z,36.04
2023-04-19T16:51:50.950Z,35.48
2023-04-19T16:54:24.950Z,35.80
2023-04-19T16:56:57.696Z,35.97
2023-04-19T16:59:30.687Z,35.65
2023-04-19T17:02:03.930Z,36.35
2023-04-19T17:04:37.078Z,36.09
2023-04-19T17:07:10.469Z,36.23
2023-04-19T17:09:44.671Z,36.42
2023-04-19T17:12:18.668Z,36.39
2023-04-19T17:14:51.578Z,36.80
2023-04-19T17:17:24.547Z,36.95
2023-04-19T17:19:57.840Z,37.06
2023-04-19T17:22:30.997Z,37.14
2023-04-19T17:25:05.937Z,37.24
2023-04-19T17:27:39.046Z,37.39
2023-04-19T17:30:12.486Z,38.15
2023-04-19T17:32:45.460Z,38.18
2023-04-19T17:35:18.342Z,38.24
2023-04-19T17:37:50.958Z,38.22
2023-04-19T17:40:25.989Z,38.50
2023-04-19T17:42:59.620Z,39.66
2023-04-19T17:45:32.432Z,38.89
2023-04-19T17:48:05.293Z,39.18
2023-04-19T17:50:38.211Z,39.81
2023-04-19T17:53:10.818Z,39.74
2023-04-19T17:55:45.810Z,40.04
2023-04-19T17:58:18.622Z,40.07
2023-04-19T18:00:51.889Z,40.11
2023-04-19T18:03:25.302Z,40.16
2023-04-19T18:05:58.225Z,41.22
2023-04-19T18:08:31.040Z,40.03
2023-04-19T18:11:05.166Z,40.63
2023-04-19T18:13:39.081Z,40.40
2023-04-19T18:16:13.530Z,40.77
2023-04-19T18:18:47.905Z,40.93
2023-04-19T18:21:20.770Z,41.35
2023-04-19T18:23:54.562Z,41.48
2023-04-19T18:26:37.403Z,41.60
2023-04-19T18:29:10.569Z,41.47
2023-04-19T18:31:43.593Z,42.20
2023-04-19T18:34:17.421Z,41.49
2023-04-19T18:36:50.120Z,41.50
2023-04-19T18:39:22.843Z,41.87
2023-04-19T18:42:19.013Z,41.67
2023-04-19T18:44:54.209Z,42.25
2023-04-19T18:47:28.466Z,42.82
2023-04-19T18:50:05.820Z,42.38
2023-04-19T18:52:39.153Z,42.31
2023-04-19T18:55:13.720Z,42.34
2023-04-19T18:57:48.208Z,42.12
2023-04-19T19:00:21.740Z,43.18
2023-04-19T19:02:55.333Z,43.43
2023-04-19T19:05:28.765Z,43.13
2023-04-19T19:08:02.340Z,42.86
2023-04-19T19:10:58.854Z,43.53
2023-04-19T19:13:29.502Z,44.33
2023-04-19T19:16:02.722Z,43.14
2023-04-19T19:18:36.001Z,43.52
2023-04-19T19:21:09.418Z,43.16
2023-04-19T19:23:42.815Z,43.29
2023-04-19T19:26:16.068Z,44.36
2023-04-19T19:28:50.349Z,43.62
2023-04-19T19:31:23.167Z,43.39
2023-04-19T19:34:14.718Z,43.36
2023-04-19T19:36:49.539Z,43.85
2023-04-19T19:39:22.331Z,45.15
2023-04-19T19:44:34.836Z,43.32
2023-04-19T19:47:10.252Z,44.22
2023-04-19T19:50:11.596Z,43.36
2023-04-19T19:52:36.790Z,44.74
2023-04-19T19:55:12.469Z,43.60
2023-04-19T20:00:44.095Z,43.89
2023-04-19T20:03:24.649Z,45.88
2023-04-19T20:08:44.550Z,46.56
2023-04-19T20:11:17.701Z,45.42
2023-04-19T20:13:50.689Z,44.34
2023-04-19T20:16:25.048Z,44.47
2023-04-19T20:18:59.465Z,45.22
2023-04-19T20:21:32.444Z,44.73
2023-04-19T20:24:05.776Z,46.69
2023-04-19T20:26:38.651Z,44.92
2023-04-19T20:29:14.520Z,45.11
2023-04-19T20:31:48.988Z,45.14
2023-04-19T20:34:21.992Z,45.47
2023-04-19T20:36:54.543Z,46.04
2023-04-19T20:39:27.624Z,46.11
2023-04-19T20:42:01.332Z,45.99
2023-04-19T20:44:34.086Z,46.75
2023-04-19T20:47:08.890Z,46.63
2023-04-19T20:49:42.099Z,46.15
2023-04-19T20:52:15.032Z,48.41
2023-04-19T20:54:47.893Z,46.66
2023-04-19T20:57:20.734Z,45.74
2023-04-19T20:59:53.520Z,46.89
2023-04-19T21:02:28.635Z,46.46
2023-04-19T21:05:01.416Z,46.54
2023-04-19T21:07:34.117Z,45.68
2023-04-19T21:10:08.027Z,47.04
2023-04-19T21:12:40.849Z,45.91
2023-04-19T21:15:13.646Z,46.81
2023-04-19T21:17:47.801Z,46.49
2023-04-19T21:20:20.837Z,46.43
2023-04-19T21:22:53.489Z,47.03
2023-04-19T21:25:26.205Z,46.75
2023-04-19T21:27:58.990Z,46.28
2023-04-19T21:30:32.852Z,46.40
2023-04-19T21:33:07.262Z,45.90
2023-04-19T21:35:40.305Z,46.21
2023-04-19T21:38:12.966Z,45.87
2023-04-19T21:40:46.357Z,45.51
2023-04-19T21:43:19.146Z,45.33
2023-04-19T21:45:52.056Z,44.79
2023-04-19T21:48:26.260Z,44.87
2023-04-19T21:50:59.050Z,45.56
2023-04-19T21:53:31.923Z,45.58
2023-04-19T21:56:05.038Z,46.45
2023-04-19T21:58:38.239Z,46.12
2023-04-19T22:01:11.763Z,46.24
2023-04-19T22:03:47.249Z,45.66
2023-04-19T22:06:21.975Z,45.30
2023-04-19T22:08:56.723Z,44.68
2023-04-19T22:11:30.318Z,46.15
2023-04-19T22:14:03.300Z,45.42
2023-04-19T22:16:35.971Z,44.84
2023-04-19T22:19:10.778Z,43.88
2023-04-19T22:21:43.542Z,44.95
2023-04-19T22:24:16.475Z,45.43
2023-04-19T22:26:50.068Z,44.80
2023-04-19T22:29:22.871Z,45.06
2023-04-19T22:31:56.144Z,44.68
2023-04-19T22:34:30.497Z,44.94
2023-04-19T22:37:03.463Z,44.53
2023-04-19T22:39:36.309Z,45.30
2023-04-19T22:42:11.145Z,44.58
2023-04-19T22:44:44.224Z,44.21
2023-04-19T22:47:17.275Z,44.25
2023-04-19T22:49:51.981Z,43.99
2023-04-19T22:52:24.991Z,44.04
2023-04-19T22:54:57.677Z,44.75
2023-04-19T22:57:30.533Z,44.32
2023-04-19T23:00:05.332Z,44.42
2023-04-19T23:02:38.774Z,44.49
2023-04-19T23:05:13.628Z,44.03
2023-04-19T23:07:46.509Z,43.74
2023-04-19T23:10:19.490Z,43.50
2023-04-19T23:12:54.237Z,43.53
2023-04-19T23:15:28.627Z,43.74
2023-04-19T23:18:02.662Z,43.74
2023-04-19T23:20:37.000Z,43.84
2023-04-19T23:23:09.877Z,43.88
2023-04-19T23:25:43.167Z,43.97
2023-04-19T23:28:15.980Z,43.71
2023-04-19T23:30:48.922Z,43.68
2023-04-19T23:33:22.085Z,43.54
2023-04-19T23:35:56.388Z,43.48
2023-04-19T23:38:29.274Z,43.68
2023-04-19T23:41:02.058Z,43.41
2023-04-19T23:43:35.686Z,43.74
2023-04-19T23:46:08.508Z,44.66
2023-04-19T23:48:41.421Z,44.36
2023-04-19T23:51:15.866Z,44.35
2023-04-19T23:53:49.572Z,44.06
2023-04-19T23:56:22.582Z,44.41
2023-04-19T23:58:55.392Z,44.09
